createdAt,value
2017-10-27T00:02:01.686Z,11.00
2017-10-27T00:04:35.747Z,11.00
2017-10-27T00:07:08.560Z,11.00
2017-10-27T00:09:40.962Z,11.00
2017-10-27T00:12:14.603Z,11.00
2017-10-27T00:14:47.777Z,11.00
2017-10-27T00:17:20.395Z,11.00
2017-10-27T00:19:53.148Z,11.00
2017-10-27T00:22:26.505Z,11.00
2017-10-27T00:24:59.493Z,11.00
2017-10-27T00:27:32.319Z,11.00
2017-10-27T00:30:04.934Z,11.00
2017-10-27T00:32:37.683Z,11.00
2017-10-27T00:35:11.012Z,11.00
2017-10-27T00:37:43.407Z,11.00
2017-10-27T00:40:15.854Z,11.00
2017-10-27T00:42:48.390Z,11.00
2017-10-27T00:45:21.032Z,11.00
2017-10-27T00:47:53.530Z,11.00
2017-10-27T00:50:26.932Z,11.00
2017-10-27T00:53:00.333Z,11.00
2017-10-27T00:55:33.600Z,11.00
2017-10-27T00:58:06.089Z,11.00
2017-10-27T01:00:39.376Z,11.00
2017-10-27T01:03:11.824Z,11.00
2017-10-27T01:05:45.224Z,10.90
2017-10-27T01:08:18.640Z,10.90
2017-10-27T01:10:51.141Z,10.90
2017-10-27T01:13:23.600Z,10.90
2017-10-27T01:15:56.241Z,10.90
2017-10-27T01:18:29.539Z,10.90
2017-10-27T01:21:02.223Z,10.90
2017-10-27T01:23:43.338Z,10.90
2017-10-27T01:26:16.284Z,10.90
2017-10-27T01:28:49.124Z,10.90
2017-10-27T01:31:21.952Z,10.90
2017-10-27T01:33:54.767Z,10.90
2017-10-27T01:36:28.306Z,10.90
2017-10-27T01:39:01.490Z,10.90
2017-10-27T01:41:34.804Z,10.90
2017-10-27T01:44:07.758Z,10.90
2017-10-27T01:46:40.582Z,10.90
2017-10-27T01:49:13.184Z,10.90
2017-10-27T01:51:45.991Z,10.90
2017-10-27T01:54:20.273Z,10.90
2017-10-27T01:56:52.711Z,10.90
2017-10-27T01:59:25.182Z,10.90
2017-10-27T02:01:57.732Z,10.90
2017-10-27T02:04:30.634Z,10.90
2017-10-27T02:07:03.220Z,10.90
2017-10-27T02:09:36.662Z,10.90
2017-10-27T02:12:09.350Z,10.90
2017-10-27T02:14:42.898Z,10.90
2017-10-27T02:17:16.160Z,10.90
2017-10-27T02:19:48.966Z,10.90
2017-10-27T02:22:22.281Z,11.00
2017-10-27T02:24:55.803Z,11.00
2017-10-27T02:27:28.344Z,11.00
2017-10-27T02:30:00.959Z,11.00
2017-10-27T02:32:34.217Z,11.10
2017-10-27T02:35:06.982Z,11.10
2017-10-27T02:37:40.893Z,11.20
2017-10-27T02:40:13.818Z,11.20
2017-10-27T02:42:46.585Z,11.30
2017-10-27T02:45:19.412Z,11.30
2017-10-27T02:47:52.229Z,11.30
2017-10-27T02:50:24.973Z,11.30
2017-10-27T02:52:57.509Z,11.40
2017-10-27T02:55:31.011Z,11.40
2017-10-27T02:58:03.513Z,11.40
2017-10-27T03:00:36.793Z,11.30
2017-10-27T03:03:09.389Z,11.40
2017-10-27T03:05:42.107Z,11.40
2017-10-27T03:08:15.326Z,11.40
2017-10-27T03:10:48.204Z,11.40
2017-10-27T03:13:21.669Z,11.40
2017-10-27T03:15:54.165Z,11.40
2017-10-27T03:18:27.398Z,11.50
2017-10-27T03:21:00.260Z,11.50
2017-10-27T03:23:32.829Z,11.50
2017-10-27T03:26:05.473Z,11.60
2017-10-27T03:28:38.851Z,11.60
2017-10-27T03:31:12.244Z,11.70
2017-10-27T03:33:44.846Z,11.70
2017-10-27T03:36:17.414Z,11.70
2017-10-27T03:38:49.824Z,11.80
2017-10-27T03:41:22.262Z,11.90
2017-10-27T03:43:55.527Z,12.00
2017-10-27T03:46:28.324Z,12.00
2017-10-27T03:49:01.247Z,12.00
2017-10-27T03:51:34.682Z,12.20
2017-10-27T03:54:07.837Z,12.20
2017-10-27T03:56:40.699Z,12.20
2017-10-27T03:59:13.474Z,12.20
2017-10-27T04:01:46.362Z,12.30
2017-10-27T04:04:19.729Z,12.30
2017-10-27T04:06:52.244Z,12.40
2017-10-27T04:09:24.806Z,12.50
2017-10-27T04:11:58.443Z,12.50
2017-10-27T04:14:31.935Z,12.60
2017-10-27T04:17:04.424Z,12.60
2017-10-27T04:19:36.977Z,12.70
2017-10-27T04:22:09.656Z,12.70
2017-10-27T04:24:42.331Z,12.70
2017-10-27T04:27:14.880Z,12.80
2017-10-27T04:29:47.455Z,12.80
2017-10-27T04:32:21.765Z,12.90
2017-10-27T04:34:54.436Z,12.90
2017-10-27T04:37:26.887Z,13.00
2017-10-27T04:40:00.253Z,13.00
2017-10-27T04:42:32.884Z,13.10
2017-10-27T04:45:05.322Z,13.10
2017-10-27T04:47:38.744Z,13.10
2017-10-27T04:50:11.267Z,13.20
2017-10-27T04:52:43.920Z,13.20
2017-10-27T04:55:17.231Z,13.30
2017-10-27T04:57:50.560Z,13.40
2017-10-27T05:00:23.089Z,13.40
2017-10-27T05:02:56.164Z,13.40
2017-10-27T05:05:29.632Z,13.50
2017-10-27T05:08:02.733Z,13.50
2017-10-27T05:10:35.660Z,13.50
2017-10-27T05:13:08.439Z,13.60
2017-10-27T05:15:41.098Z,13.60
2017-10-27T05:18:19.589Z,13.60
2017-10-27T05:20:58.232Z,13.60
2017-10-27T05:23:37.897Z,13.70
2017-10-27T05:26:12.109Z,13.70
2017-10-27T05:28:45.562Z,13.80
2017-10-27T05:31:19.075Z,13.80
2017-10-27T05:33:52.014Z,13.80
2017-10-27T05:36:26.062Z,13.90
2017-10-27T05:38:58.962Z,13.80
2017-10-27T05:41:31.599Z,13.90
2017-10-27T05:44:04.377Z,13.90
2017-10-27T05:46:37.027Z,13.90
2017-10-27T05:49:10.384Z,13.90
2017-10-27T05:51:42.854Z,13.90
2017-10-27T05:54:16.053Z,13.90
2017-10-27T05:56:48.842Z,13.90
2017-10-27T05:59:21.238Z,13.90
2017-10-27T06:01:53.779Z,13.90
2017-10-27T06:04:27.183Z,13.80
2017-10-27T06:07:00.575Z,13.80
2017-10-27T06:09:33.288Z,13.80
2017-10-27T06:12:06.156Z,13.80
2017-10-27T06:14:38.671Z,13.80
2017-10-27T06:17:11.665Z,13.80
2017-10-27T06:19:45.391Z,13.80
2017-10-27T06:22:19.175Z,13.80
2017-10-27T06:24:52.394Z,13.80
2017-10-27T06:27:26.570Z,13.80
2017-10-27T06:30:00.211Z,13.90
2017-10-27T06:32:32.867Z,13.80
2017-10-27T06:35:06.346Z,13.90
2017-10-27T06:37:38.960Z,13.80
2017-10-27T06:40:11.599Z,13.80
2017-10-27T06:42:44.059Z,13.90
2017-10-27T06:45:16.538Z,13.90
2017-10-27T06:47:48.961Z,13.90
2017-10-27T06:50:21.486Z,13.90
2017-10-27T06:52:54.711Z,13.90
2017-10-27T06:55:27.269Z,13.90
2017-10-27T06:58:00.452Z,13.90
2017-10-27T07:00:34.094Z,13.90
2017-10-27T07:03:07.040Z,13.90
2017-10-27T07:05:39.585Z,13.90
2017-10-27T07:08:12.087Z,13.90
2017-10-27T07:10:44.467Z,13.90
2017-10-27T07:13:16.878Z,13.80
2017-10-27T07:15:50.116Z,13.80
2017-10-27T07:18:22.572Z,13.80
2017-10-27T07:20:56.305Z,13.80
2017-10-27T07:23:29.371Z,13.80
2017-10-27T07:26:02.331Z,13.80
2017-10-27T07:28:34.978Z,13.80
2017-10-27T07:31:07.896Z,13.90
2017-10-27T07:33:40.380Z,13.90
2017-10-27T07:36:13.470Z,13.90
2017-10-27T07:38:46.813Z,14.00
2017-10-27T07:41:19.562Z,14.00
2017-10-27T07:43:53.847Z,14.20
2017-10-27T07:46:27.217Z,14.80
2017-10-27T07:49:00.100Z,14.80
2017-10-27T07:51:33.308Z,15.20
2017-10-27T07:54:06.150Z,15.20
2017-10-27T07:56:38.632Z,15.30
2017-10-27T07:59:12.751Z,15.20
2017-10-27T08:01:45.684Z,15.10
2017-10-27T08:04:19.011Z,15.10
2017-10-27T08:06:52.260Z,15.00
2017-10-27T08:09:24.884Z,14.90
2017-10-27T08:11:58.136Z,14.80
2017-10-27T08:14:31.375Z,14.70
2017-10-27T08:17:03.969Z,14.70
2017-10-27T08:19:36.606Z,14.60
2017-10-27T08:22:09.282Z,14.60
2017-10-27T08:24:42.361Z,14.60
2017-10-27T08:27:14.882Z,14.70
2017-10-27T08:29:47.339Z,14.90
2017-10-27T08:32:20.142Z,15.00
2017-10-27T08:34:53.320Z,15.00
2017-10-27T08:37:26.429Z,15.10
2017-10-27T08:39:58.965Z,15.00
2017-10-27T08:42:32.344Z,14.90
2017-10-27T08:45:05.462Z,14.90
2017-10-27T08:47:38.922Z,14.60
2017-10-27T08:50:11.851Z,14.60
2017-10-27T08:52:45.182Z,14.50
2017-10-27T08:55:17.623Z,14.30
2017-10-27T08:57:50.073Z,14.20
2017-10-27T09:00:22.638Z,14.00
2017-10-27T09:02:55.954Z,13.70
2017-10-27T09:05:28.896Z,13.70
2017-10-27T09:08:03.209Z,13.40
2017-10-27T09:10:35.823Z,13.40
2017-10-27T09:13:08.278Z,13.30
2017-10-27T09:15:41.593Z,13.10
2017-10-27T09:18:14.400Z,13.00
2017-10-27T09:20:46.986Z,12.80
2017-10-27T09:23:19.504Z,12.70
2017-10-27T09:25:52.420Z,12.60
2017-10-27T09:28:24.960Z,12.50
2017-10-27T09:30:59.079Z,12.30
2017-10-27T09:33:32.445Z,12.20
2017-10-27T09:36:05.192Z,12.20
2017-10-27T09:38:37.679Z,12.00
2017-10-27T09:41:10.191Z,12.00
2017-10-27T09:43:42.866Z,11.90
2017-10-27T09:46:16.300Z,11.80
2017-10-27T09:48:49.450Z,11.70
2017-10-27T09:51:22.109Z,11.70
2017-10-27T09:53:54.934Z,11.60
2017-10-27T09:56:27.732Z,11.60
2017-10-27T09:59:00.895Z,11.50
2017-10-27T10:01:34.250Z,11.50
2017-10-27T10:04:07.551Z,11.40
2017-10-27T10:06:40.154Z,11.40
2017-10-27T10:09:12.822Z,11.40
2017-10-27T10:11:46.267Z,11.30
2017-10-27T10:14:19.749Z,11.30
2017-10-27T10:16:52.481Z,11.20
2017-10-27T10:19:24.963Z,11.20
2017-10-27T10:21:58.972Z,11.00
2017-10-27T10:24:31.946Z,11.00
2017-10-27T10:27:05.141Z,10.90
2017-10-27T10:29:39.141Z,10.80
2017-10-27T10:32:11.923Z,10.90
2017-10-27T10:34:44.559Z,10.80
2017-10-27T10:37:18.495Z,10.90
2017-10-27T10:39:52.082Z,10.90
2017-10-27T10:42:24.743Z,10.90
2017-10-27T10:44:57.364Z,10.90
2017-10-27T10:47:30.701Z,10.90
2017-10-27T10:50:03.252Z,10.90
2017-10-27T10:52:36.601Z,11.00
2017-10-27T10:55:09.900Z,11.00
2017-10-27T10:57:42.744Z,11.00
2017-10-27T11:00:15.688Z,11.10
2017-10-27T11:02:48.220Z,11.10
2017-10-27T11:05:21.211Z,11.10
2017-10-27T11:07:54.137Z,11.20
2017-10-27T11:10:27.169Z,11.30
2017-10-27T11:13:00.620Z,11.40
2017-10-27T11:15:34.859Z,11.40
2017-10-27T11:18:07.552Z,11.40
2017-10-27T11:20:39.990Z,11.40
2017-10-27T11:23:13.177Z,11.50
2017-10-27T11:25:46.859Z,11.60
2017-10-27T11:28:20.360Z,11.70
2017-10-27T11:30:53.305Z,11.60
2017-10-27T11:33:26.537Z,11.70
2017-10-27T11:35:59.180Z,11.80
2017-10-27T11:38:31.802Z,11.80
2017-10-27T11:41:05.307Z,11.70
2017-10-27T11:43:38.072Z,11.70
2017-10-27T11:46:10.614Z,11.80
2017-10-27T11:48:43.046Z,11.80
2017-10-27T11:51:16.439Z,11.70
2017-10-27T11:53:49.091Z,11.70
2017-10-27T11:56:21.838Z,11.70
2017-10-27T11:58:55.172Z,11.70
2017-10-27T12:01:27.723Z,11.70
2017-10-27T12:04:02.173Z,11.80
2017-10-27T12:06:35.222Z,11.80
2017-10-27T12:09:07.828Z,11.80
2017-10-27T12:11:41.232Z,11.90
2017-10-27T12:14:14.093Z,11.80
2017-10-27T12:16:47.048Z,11.90
2017-10-27T12:19:20.070Z,11.90
2017-10-27T12:21:54.500Z,12.00
2017-10-27T12:24:27.984Z,11.90
2017-10-27T12:27:02.235Z,12.00
2017-10-27T12:29:35.023Z,12.00
2017-10-27T12:32:08.509Z,12.00
2017-10-27T12:34:41.255Z,12.10
2017-10-27T12:37:13.960Z,12.10
2017-10-27T12:39:47.263Z,12.20
2017-10-27T12:42:20.461Z,12.20
2017-10-27T12:44:53.262Z,12.20
2017-10-27T12:47:26.657Z,12.20
2017-10-27T12:49:59.949Z,12.20
2017-10-27T12:52:33.242Z,12.10
2017-10-27T12:55:05.806Z,12.10
2017-10-27T12:57:38.356Z,12.10
2017-10-27T13:00:11.597Z,12.10
2017-10-27T13:02:44.190Z,12.10
2017-10-27T13:05:18.394Z,12.20
2017-10-27T13:07:51.173Z,12.20
2017-10-27T13:10:23.940Z,12.20
2017-10-27T13:12:57.397Z,12.00
2017-10-27T13:15:30.882Z,11.90
2017-10-27T13:18:03.473Z,11.90
2017-10-27T13:20:36.879Z,11.80
2017-10-27T13:23:09.637Z,11.70
2017-10-27T13:25:42.411Z,11.70
2017-10-27T13:28:14.906Z,11.70
2017-10-27T13:30:48.642Z,11.80
2017-10-27T13:33:21.785Z,11.80
2017-10-27T13:35:54.293Z,11.90
2017-10-27T13:38:26.898Z,12.00
2017-10-27T13:41:00.261Z,12.10
2017-10-27T13:43:33.763Z,12.00
2017-10-27T13:46:07.171Z,12.10
2017-10-27T13:48:39.787Z,12.00
2017-10-27T13:51:13.092Z,12.00
2017-10-27T13:53:45.581Z,12.00
2017-10-27T13:56:18.092Z,12.00
2017-10-27T13:58:51.583Z,12.00
2017-10-27T14:01:24.102Z,11.90
2017-10-27T14:03:57.352Z,11.90
2017-10-27T14:06:30.255Z,11.90
2017-10-27T14:09:03.554Z,11.90
2017-10-27T14:11:36.790Z,11.90
2017-10-27T14:14:09.626Z,11.90
2017-10-27T14:16:43.032Z,11.90
2017-10-27T14:19:16.277Z,11.90
2017-10-27T14:21:49.299Z,11.90
2017-10-27T14:24:21.963Z,11.80
2017-10-27T14:26:55.320Z,11.80
2017-10-27T14:29:27.796Z,11.70
2017-10-27T14:32:00.316Z,11.60
2017-10-27T14:34:33.313Z,11.60
2017-10-27T14:37:05.983Z,11.50
2017-10-27T14:39:38.582Z,11.50
2017-10-27T14:42:11.647Z,11.60
2017-10-27T14:44:44.562Z,11.60
2017-10-27T14:47:17.266Z,11.60
2017-10-27T14:49:49.656Z,11.70
2017-10-27T14:52:22.371Z,11.70
2017-10-27T14:54:54.969Z,11.70
2017-10-27T14:57:28.228Z,11.70
2017-10-27T15:00:01.643Z,11.70
2017-10-27T15:02:34.993Z,11.60
2017-10-27T15:05:08.356Z,11.50
2017-10-27T15:07:42.171Z,11.50
2017-10-27T15:10:15.402Z,11.50
2017-10-27T15:12:48.854Z,11.50
2017-10-27T15:15:21.651Z,11.50
2017-10-27T15:17:54.225Z,11.40
2017-10-27T15:20:26.698Z,11.40
2017-10-27T15:23:00.118Z,11.40
2017-10-27T15:25:32.980Z,11.20
2017-10-27T15:28:06.271Z,11.10
2017-10-27T15:30:38.884Z,11.00
2017-10-27T15:33:11.273Z,10.90
2017-10-27T15:35:45.533Z,10.70
2017-10-27T15:38:18.313Z,10.70
2017-10-27T15:40:50.794Z,10.60
2017-10-27T15:43:23.311Z,10.50
2017-10-27T15:45:56.850Z,10.40
2017-10-27T15:48:29.672Z,10.30
2017-10-27T15:51:02.274Z,10.30
2017-10-27T15:53:35.536Z,10.20
2017-10-27T15:56:08.630Z,10.20
2017-10-27T15:58:41.892Z,10.10
2017-10-27T16:01:14.519Z,10.10
2017-10-27T16:03:47.860Z,10.00
2017-10-27T16:06:20.522Z,10.00
2017-10-27T16:08:53.852Z,10.00
2017-10-27T16:11:26.411Z,9.90
2017-10-27T16:13:59.752Z,9.90
2017-10-27T16:16:32.437Z,9.90
2017-10-27T16:19:05.598Z,9.90
2017-10-27T16:21:38.412Z,9.80
2017-10-27T16:24:11.895Z,9.90
2017-10-27T16:26:44.392Z,9.80
2017-10-27T16:29:16.851Z,9.80
2017-10-27T16:31:49.286Z,9.80
2017-10-27T16:34:23.398Z,9.80
2017-10-27T16:36:57.019Z,9.80
2017-10-27T16:39:29.593Z,9.80
2017-10-27T16:42:02.170Z,9.80
2017-10-27T16:44:36.292Z,9.80
2017-10-27T16:47:09.258Z,9.70
2017-10-27T16:49:42.654Z,9.80
2017-10-27T16:52:15.680Z,9.80
2017-10-27T16:54:48.870Z,9.80
2017-10-27T16:57:21.952Z,9.80
2017-10-27T16:59:54.754Z,9.80
2017-10-27T17:02:27.546Z,9.80
2017-10-27T17:05:00.331Z,9.80
2017-10-27T17:07:33.053Z,9.90
2017-10-27T17:10:06.684Z,9.90
2017-10-27T17:12:39.499Z,9.90
2017-10-27T17:15:12.065Z,9.90
2017-10-27T17:17:45.523Z,9.90
2017-10-27T17:20:18.853Z,10.00
2017-10-27T17:22:51.548Z,10.00
2017-10-27T17:25:24.021Z,10.00
2017-10-27T17:27:58.112Z,10.00
2017-10-27T17:30:30.860Z,10.00
2017-10-27T17:33:04.340Z,10.00
2017-10-27T17:35:37.702Z,10.00
2017-10-27T17:38:11.849Z,10.10
2017-10-27T17:40:44.552Z,10.10
2017-10-27T17:43:17.519Z,10.10
2017-10-27T17:45:50.522Z,10.10
2017-10-27T17:48:23.137Z,10.20
2017-10-27T17:50:55.674Z,10.20
2017-10-27T17:53:29.078Z,10.20
2017-10-27T17:56:02.519Z,10.20
2017-10-27T17:58:36.246Z,10.20
2017-10-27T18:01:09.793Z,10.20
2017-10-27T18:03:43.693Z,10.20
2017-10-27T18:06:17.654Z,10.20
2017-10-27T18:08:51.896Z,10.20
2017-10-27T18:11:26.243Z,10.20
2017-10-27T18:14:00.049Z,10.20
2017-10-27T18:16:34.144Z,10.20
2017-10-27T18:19:07.967Z,10.20
2017-10-27T18:21:42.893Z,10.20
2017-10-27T18:24:17.621Z,10.20
2017-10-27T18:26:52.344Z,10.20
2017-10-27T18:29:28.858Z,10.10
2017-10-27T18:32:04.778Z,10.10
2017-10-27T18:34:40.822Z,10.00
2017-10-27T18:37:16.610Z,10.00
2017-10-27T18:39:52.837Z,10.00
2017-10-27T18:42:27.978Z,9.90
2017-10-27T18:45:03.932Z,10.00
2017-10-27T18:47:39.284Z,9.90
2017-10-27T18:50:15.261Z,9.90
2017-10-27T18:52:51.372Z,9.90
2017-10-27T18:55:25.821Z,9.90
2017-10-27T18:58:00.104Z,9.90
2017-10-27T19:00:34.661Z,9.80
2017-10-27T19:03:10.074Z,9.80
2017-10-27T19:05:45.288Z,9.70
2017-10-27T19:08:20.206Z,9.70
2017-10-27T19:10:56.724Z,9.60
2017-10-27T19:13:32.111Z,9.60
2017-10-27T19:16:07.678Z,9.60
2017-10-27T19:18:43.656Z,9.50
2017-10-27T19:21:19.399Z,9.50
2017-10-27T19:23:54.226Z,9.50
2017-10-27T19:26:29.192Z,9.50
2017-10-27T19:29:04.135Z,9.40
2017-10-27T19:31:39.044Z,9.40
2017-10-27T19:34:13.471Z,9.40
2017-10-27T19:36:49.144Z,9.40
2017-10-27T19:39:24.527Z,9.40
2017-10-27T19:42:01.419Z,9.40
2017-10-27T19:44:36.898Z,9.30
2017-10-27T19:47:12.295Z,9.30
2017-10-27T19:49:47.659Z,9.30
2017-10-27T19:52:23.287Z,9.30
2017-10-27T19:54:59.537Z,9.30
2017-10-27T19:57:36.202Z,9.30
2017-10-27T20:00:11.965Z,9.30
2017-10-27T20:02:47.406Z,9.30
2017-10-27T20:05:21.744Z,9.30
2017-10-27T20:07:56.025Z,9.40
2017-10-27T20:10:30.683Z,9.30
2017-10-27T20:13:05.085Z,9.40
2017-10-27T20:15:39.261Z,9.40
2017-10-27T20:18:13.880Z,9.40
2017-10-27T20:20:48.137Z,9.40
2017-10-27T20:23:22.861Z,9.40
2017-10-27T20:25:57.209Z,9.40
2017-10-27T20:28:32.084Z,9.40
2017-10-27T20:31:06.928Z,9.40
2017-10-27T20:33:42.109Z,9.30
2017-10-27T20:36:17.564Z,9.30
2017-10-27T20:38:51.796Z,9.30
2017-10-27T20:41:27.341Z,9.30
2017-10-27T20:44:01.694Z,9.30
2017-10-27T20:46:36.080Z,9.30
2017-10-27T20:49:10.362Z,9.30
2017-10-27T20:51:44.593Z,9.30
2017-10-27T20:54:19.864Z,9.30
2017-10-27T20:56:54.601Z,9.30
2017-10-27T20:59:28.890Z,9.30
2017-10-27T21:02:03.398Z,9.20
2017-10-27T21:04:37.715Z,9.30
2017-10-27T21:07:12.472Z,9.20
2017-10-27T21:09:47.828Z,9.20
2017-10-27T21:12:22.655Z,9.20
2017-10-27T21:15:03.631Z,9.20
2017-10-27T21:17:37.682Z,9.20
2017-10-27T21:20:11.747Z,9.20
2017-10-27T21:22:45.140Z,9.20
2017-10-27T21:25:18.289Z,9.20
2017-10-27T21:27:50.904Z,9.20
2017-10-27T21:30:24.322Z,9.20
2017-10-27T21:32:56.783Z,9.20
2017-10-27T21:35:29.608Z,9.20
2017-10-27T21:38:02.825Z,9.20
2017-10-27T21:40:36.388Z,9.20
2017-10-27T21:43:09.433Z,9.20
2017-10-27T21:45:43.403Z,9.20
2017-10-27T21:48:16.575Z,9.20
2017-10-27T21:50:49.440Z,9.20
2017-10-27T21:53:22.521Z,9.20
2017-10-27T21:55:55.583Z,9.20
2017-10-27T21:58:28.642Z,9.20
2017-10-27T22:01:02.092Z,9.20
2017-10-27T22:03:35.469Z,9.20
2017-10-27T22:06:08.157Z,9.10
2017-10-27T22:08:40.686Z,9.20
2017-10-27T22:11:13.279Z,9.20
2017-10-27T22:13:46.847Z,9.20
2017-10-27T22:16:20.400Z,9.20
2017-10-27T22:18:52.881Z,9.20
2017-10-27T22:21:25.637Z,9.20
2017-10-27T22:23:58.809Z,9.20
2017-10-27T22:26:31.569Z,9.20
2017-10-27T22:29:04.060Z,9.20
2017-10-27T22:31:37.524Z,9.20
2017-10-27T22:34:10.189Z,9.20
2017-10-27T22:36:43.465Z,9.20
2017-10-27T22:39:16.105Z,9.20
2017-10-27T22:41:48.664Z,9.20
2017-10-27T22:44:21.779Z,9.10
2017-10-27T22:46:55.390Z,9.10
2017-10-27T22:49:28.059Z,9.10
2017-10-27T22:52:00.856Z,9.10
2017-10-27T22:54:33.756Z,9.10
2017-10-27T22:57:06.537Z,9.10
2017-10-27T22:59:40.041Z,9.00
2017-10-27T23:02:13.706Z,9.00
2017-10-27T23:04:47.054Z,8.90
2017-10-27T23:07:19.802Z,8.90
2017-10-27T23:09:53.181Z,8.90
2017-10-27T23:12:26.366Z,8.90
2017-10-27T23:14:59.041Z,8.80
2017-10-27T23:17:31.728Z,8.80
2017-10-27T23:20:04.310Z,8.80
2017-10-27T23:22:37.382Z,8.70
2017-10-27T23:25:11.253Z,8.60
2017-10-27T23:27:43.894Z,8.60
2017-10-27T23:30:16.317Z,8.60
2017-10-27T23:32:49.820Z,8.50
2017-10-27T23:35:22.440Z,8.50
2017-10-27T23:37:55.053Z,8.50
2017-10-27T23:40:28.507Z,8.40
2017-10-27T23:43:00.915Z,8.40
2017-10-27T23:45:35.232Z,8.40
2017-10-27T23:48:07.976Z,8.40
2017-10-27T23:50:40.492Z,8.40
2017-10-27T23:53:12.935Z,8.40
2017-10-27T23:55:46.195Z,8.40
2017-10-27T23:58:18.938Z,8.30
